Eikamaru No.2 — JD3056 — position and weather

sailwx.info

Track history (hours):
 
Tides and Currents Weather Stations Pressure Air Temp Water Temp Dewpoint Dewpoint Depression Visibility Wind Speed Wind Dir Waves Ship Positions

Eikamaru No.2

Last reported at 2014-Sep-19 05:34 UTC. Time now 2014-Sep-19 07:48 UTC.
Position N 35°53' E 140°41'.

Length 60 m; draft 3.3 m.

Type: Tanker. MMSI: 431001342.

Date/timePositionNaut miles runAvg speedWind from/ knotsBaromVisibWave heightAir tempDewpointWater temp
2014-Sep-19 05:34N 35°53' E 140°41'0 0.0
2014-Sep-19 04:33N 35°53' E 140°41'0 0.0
2014-Sep-19 03:33N 35°53' E 140°41'0 0.0
2014-Sep-19 02:33N 35°53' E 140°41'0 0.1
2014-Sep-19 01:34N 35°53' E 140°41'0 0.2
2014-Sep-19 00:26N 35°53' E 140°41'0 0.0
2014-Sep-18 23:33N 35°53' E 140°41'1 1.0
2014-Sep-18 22:33N 35°54' E 140°41'5 5.1
2014-Sep-18 21:33N 35°58' E 140°45'0 0.0
2014-Sep-18 20:33N 35°58' E 140°45'0 0.0
2014-Sep-18 19:33N 35°58' E 140°45'0 0.0
2014-Sep-18 18:34N 35°58' E 140°45'0 0.0
2014-Sep-18 17:32N 35°58' E 140°45'0 0.0
2014-Sep-18 16:33N 35°58' E 140°45'2 2.4
2014-Sep-18 15:32N 35°56' E 140°46'1111.2
2014-Sep-18 14:34N 35°46' E 140°53'10 9.8
2014-Sep-18 13:33N 35°37' E 140°52'1010.0
2014-Sep-18 12:33N 35°28' E 140°45'1111.0
2014-Sep-18 11:32N 35°20' E 140°36'1111.0
2014-Sep-18 10:30N 35°11' E 140°27'1212.1
2014-Sep-18 09:31N 35°03' E 140°16'1212.0
2014-Sep-18 08:32N 34°57' E 140°04'1211.4
2014-Sep-18 07:28N 34°52' E 139°50'9 9.8
2014-Sep-18 06:33N 34°59' E 139°43'1111.5
2014-Sep-18 05:33N 35°10' E 139°46'1111.4
2014-Sep-18 04:33N 35°21' E 139°42'1111.4
2014-Sep-18 03:34N 35°30' E 139°52'1211.9
2014-Sep-18 02:33N 35°36' E 140°05'1 0.5
2014-Sep-18 01:32N 35°36' E 140°05'0 0.0
2014-Sep-18 00:33N 35°36' E 140°05'0 0.0
2014-Sep-17 23:33N 35°36' E 140°05'4 4.1
2014-Sep-17 22:33N 35°33' E 140°02'0 0.0
2014-Sep-17 21:34N 35°33' E 140°02'0 0.0
2014-Sep-17 20:33N 35°33' E 140°02'0 0.0
2014-Sep-17 19:33N 35°33' E 140°02'0 0.0
2014-Sep-17 18:33N 35°33' E 140°02'0 0.0
2014-Sep-17 17:33N 35°33' E 140°02'0 0.0
2014-Sep-17 16:33N 35°33' E 140°02'0 0.0
2014-Sep-17 15:33N 35°33' E 140°02'0 0.0
2014-Sep-17 14:34N 35°33' E 140°02'0 0.0
2014-Sep-17 13:34N 35°33' E 140°02'0 0.0
2014-Sep-17 12:33N 35°33' E 140°02'0 0.0
2014-Sep-17 11:33N 35°33' E 140°02'0 0.0
2014-Sep-17 10:33N 35°33' E 140°02'0 0.0
2014-Sep-17 09:33N 35°33' E 140°02'0 0.0
2014-Sep-17 08:34N 35°33' E 140°02'0 0.0
2014-Sep-17 07:33N 35°33' E 140°02'4 3.7
2014-Sep-17 06:34N 35°32' E 140°06'0 0.1
2014-Sep-17 05:33N 35°32' E 140°06'0 0.0
2014-Sep-17 04:33N 35°32' E 140°06'1 0.9
2014-Sep-17 03:33N 35°33' E 140°05'1 0.8
2014-Sep-17 02:33N 35°34' E 140°05'2 2.4
2014-Sep-17 01:34N 35°36' E 140°05'0 0.0
2014-Sep-17 00:33N 35°36' E 140°05'0 0.0
2014-Sep-16 23:33N 35°36' E 140°05'5 5.3
2014-Sep-16 22:33N 35°34' E 139°59'7 6.9
2014-Sep-16 21:34N 35°41' E 139°59'0 0.0
2014-Sep-16 20:33N 35°41' E 139°59'0 0.0
2014-Sep-16 19:33N 35°41' E 139°59'0 0.0
2014-Sep-16 18:33N 35°41' E 139°59'0 0.0
2014-Sep-16 17:34N 35°41' E 139°59'0 0.0
2014-Sep-16 16:34N 35°41' E 139°59'0 0.0
2014-Sep-16 15:34N 35°41' E 139°59'0 0.0
2014-Sep-16 14:33N 35°41' E 139°59'0 0.0
2014-Sep-16 13:34N 35°41' E 139°59'0 0.0
2014-Sep-16 12:33N 35°41' E 139°59'0 0.0
2014-Sep-16 11:34N 35°41' E 139°59'0 0.0
2014-Sep-16 10:33N 35°41' E 139°59'0 0.0
2014-Sep-16 09:34N 35°41' E 139°59'0 0.0
2014-Sep-16 08:33N 35°41' E 139°59'0 0.0
2014-Sep-16 07:34N 35°41' E 139°59'0 0.0
2014-Sep-16 06:34N 35°41' E 139°59'0 0.0
2014-Sep-16 05:34N 35°41' E 139°59'0 0.0
2014-Sep-16 04:33N 35°41' E 139°59'0 0.0
2014-Sep-16 03:33N 35°41' E 139°59'0 0.0
2014-Sep-16 02:33N 35°41' E 139°59'0 0.0
2014-Sep-16 01:33N 35°41' E 139°59'0 0.0
2014-Sep-16 00:34N 35°41' E 139°59'0 0.0
2014-Sep-15 23:34N 35°41' E 139°59'0 0.0
2014-Sep-15 22:34N 35°41' E 139°59'0 0.0
2014-Sep-15 21:34N 35°41' E 139°59'0 0.0
2014-Sep-15 20:33N 35°41' E 139°59'0 0.0
2014-Sep-15 19:33N 35°41' E 139°59'0 0.0
2014-Sep-15 18:33N 35°41' E 139°59'0 0.0
2014-Sep-15 17:33N 35°41' E 139°59'0 0.0
2014-Sep-15 16:34N 35°41' E 139°59'0 0.0
2014-Sep-15 15:33N 35°41' E 139°59'0 0.0
2014-Sep-15 14:33N 35°41' E 139°59'0 0.0
2014-Sep-15 13:33N 35°41' E 139°59'0 0.0
2014-Sep-15 12:33N 35°41' E 139°59'0 0.0
2014-Sep-15 11:34N 35°41' E 139°59'0 0.0
2014-Sep-15 10:34N 35°41' E 139°59'0 0.0
2014-Sep-15 09:33N 35°41' E 139°59'0 0.0
2014-Sep-15 08:34N 35°41' E 139°59'0 0.0
2014-Sep-15 07:34N 35°41' E 139°59'0 0.0
2014-Sep-15 06:34N 35°41' E 139°59'0 0.0
2014-Sep-15 05:33N 35°41' E 139°59'0 0.0
2014-Sep-15 04:33N 35°41' E 139°59'0 0.0
2014-Sep-15 03:34N 35°41' E 139°59'0 0.0
2014-Sep-15 02:34N 35°41' E 139°59'0 0.0
2014-Sep-15 01:33N 35°41' E 139°59'0 0.0
2014-Sep-15 00:33N 35°41' E 139°59'0 0.0
2014-Sep-14 23:33N 35°41' E 139°59'0 0.0
2014-Sep-14 22:34N 35°41' E 139°59'0 0.0
2014-Sep-14 21:33N 35°41' E 139°59'0 0.0
2014-Sep-14 20:33N 35°41' E 139°59'0 0.0
2014-Sep-14 19:34N 35°41' E 139°59'0 0.0
2014-Sep-14 18:34N 35°41' E 139°59'0 0.0
2014-Sep-14 17:33N 35°41' E 139°59'0 0.0
2014-Sep-14 16:33N 35°41' E 139°59'0 0.0
2014-Sep-14 15:33N 35°41' E 139°59'0 0.0
2014-Sep-14 14:34N 35°41' E 139°59'0 0.0
2014-Sep-14 13:33N 35°41' E 139°59'0 0.0
2014-Sep-14 12:34N 35°41' E 139°59'0 0.0
2014-Sep-14 11:33N 35°41' E 139°59'0 0.0
2014-Sep-14 10:34N 35°41' E 139°59'0 0.0
2014-Sep-14 09:34N 35°41' E 139°59'0 0.0
2014-Sep-14 08:33N 35°41' E 139°59'0 0.0
2014-Sep-14 07:33N 35°41' E 139°59'0 0.0
2014-Sep-14 06:34N 35°41' E 139°59'0 0.0
2014-Sep-14 05:34N 35°41' E 139°59'0 0.0
2014-Sep-14 04:34N 35°41' E 139°59'0 0.0
2014-Sep-14 03:33N 35°41' E 139°59'0 0.0
2014-Sep-14 02:34N 35°41' E 139°59'0 0.0
2014-Sep-14 01:34N 35°41' E 139°59'4 0.9
2014-Sep-13 21:33N 35°37' E 139°57'6 5.7
2014-Sep-13 20:34N 35°32' E 139°55'1010.2
2014-Sep-13 19:33N 35°24' E 139°47'1010.3
2014-Sep-13 18:34N 35°14' E 139°47'1110.8
2014-Sep-13 17:32N 35°04' E 139°41'9 0.3
2014-Sep-12 06:33N 35°12' E 139°46'1010.1
2014-Sep-12 05:33N 35°22' E 139°42'3 3.5
2014-Sep-12 04:33N 35°24' E 139°45'1010.2
2014-Sep-12 03:33N 35°30' E 139°56'4 3.7
2014-Sep-12 02:33N 35°28' E 140°00'0 0.0
2014-Sep-12 01:33N 35°28' E 140°00'0 0.0
2014-Sep-12 00:33N 35°28' E 140°00'3 2.5
2014-Sep-11 23:33N 35°30' E 139°58'0 0.3
2014-Sep-11 22:33N 35°30' E 139°57'0 0.0
2014-Sep-11 21:33N 35°30' E 139°57'0 0.0
2014-Sep-11 20:33N 35°30' E 139°57'0 0.0
2014-Sep-11 19:33N 35°30' E 139°57'0 0.0
2014-Sep-11 18:33N 35°30' E 139°57'0 0.0
2014-Sep-11 17:33N 35°30' E 139°57'0 0.0
2014-Sep-11 16:33N 35°30' E 139°57'1 0.9
2014-Sep-11 15:33N 35°30' E 139°56'1111.1
2014-Sep-11 14:33N 35°23' E 139°46'1010.5
2014-Sep-11 13:33N 35°12' E 139°47'1211.9
2014-Sep-11 12:31N 35°00' E 139°43'14 9.5
2014-Sep-11 11:05N 34°53' E 139°57'810.0
2014-Sep-11 10:16N 34°57' E 140°06'27 9.8
2014-Sep-11 07:32N 35°15' E 140°31'1212.0
2014-Sep-11 06:32N 35°24' E 140°40'34 9.8
2014-Sep-11 03:06N 35°58' E 140°43'5 8.9
2014-Sep-11 02:33N 35°53' E 140°41'0 0.0
2014-Sep-11 01:33N 35°53' E 140°41'0 0.0
2014-Sep-11 00:33N 35°53' E 140°41'0 0.0
2014-Sep-10 23:33N 35°53' E 140°41'2 1.9
2014-Sep-10 22:33N 35°55' E 140°41'5 4.6
2014-Sep-10 21:33N 35°58' E 140°45'0 0.0
2014-Sep-10 20:29N 35°58' E 140°45'0 0.0
2014-Sep-10 19:33N 35°58' E 140°45'0 0.0
2014-Sep-10 17:06N 35°58' E 140°45'0 0.0
2014-Sep-10 16:33N 35°58' E 140°45'6 6.2
2014-Sep-10 15:33N 35°53' E 140°49'1111.4
2014-Sep-10 14:33N 35°43' E 140°55'1211.6
2014-Sep-10 13:33N 35°33' E 140°47'1211.5
2014-Sep-10 12:33N 35°23' E 140°40'1211.6
2014-Sep-10 11:33N 35°14' E 140°31'1413.6
2014-Sep-10 10:32N 35°04' E 140°19'1313.3
2014-Sep-10 09:33N 34°57' E 140°05'1411.9
2014-Sep-10 08:21N 34°52' E 139°49'8 9.7
2014-Sep-10 07:34N 34°59' E 139°44'9 9.3
2014-Sep-10 06:34N 35°08' E 139°45'1010.0
2014-Sep-10 05:34N 35°18' E 139°44'9 9.2
2014-Sep-10 04:34N 35°27' E 139°47'1110.6
2014-Sep-10 03:33N 35°28' E 139°60'1 0.5
2014-Sep-10 02:33N 35°28' E 140°00'0 0.0
2014-Sep-10 01:34N 35°28' E 140°00'0 0.0
2014-Sep-10 00:33N 35°28' E 140°00'2 1.9
2014-Sep-09 23:33N 35°30' E 139°59'1010.3
2014-Sep-09 22:33N 35°40' E 139°59'1 0.7
2014-Sep-09 21:33N 35°41' E 139°59'0 0.0
2014-Sep-09 20:33N 35°41' E 139°59'0 0.0
2014-Sep-09 19:34N 35°41' E 139°59'0 0.0
2014-Sep-09 18:33N 35°41' E 139°59'0 0.0
2014-Sep-09 17:34N 35°41' E 139°59'0 0.0
2014-Sep-09 16:33N 35°41' E 139°59'0 0.0
2014-Sep-09 15:33N 35°41' E 139°59'0 0.0
2014-Sep-09 14:34N 35°41' E 139°59'0 0.0
2014-Sep-09 13:34N 35°41' E 139°59'0 0.0
2014-Sep-09 12:34N 35°41' E 139°59'0 0.0
2014-Sep-09 11:33N 35°41' E 139°59'0 0.0
2014-Sep-09 10:34N 35°41' E 139°59'0 0.0
2014-Sep-09 09:33N 35°41' E 139°59'0 0.0
2014-Sep-09 08:34N 35°41' E 139°59'0 0.4
2014-Sep-09 07:33N 35°40' E 139°59'10 9.8
2014-Sep-09 06:34N 35°32' E 140°06'0 0.0
2014-Sep-09 05:34N 35°32' E 140°06'  
Track history (hours):
 
Tides and Currents Weather Stations Pressure Air Temp Water Temp Dewpoint Dewpoint Depression Visibility Wind Speed Wind Dir Waves Ship Positions

Eikamaru No.2

Last reported at 2014-Sep-19 05:34 UTC. Time now 2014-Sep-19 07:48 UTC.
Position N 35°53' E 140°41'.

Length 60 m; draft 3.3 m.

Type: Tanker. MMSI: 431001342.

Date/timePositionNaut miles runAvg speedWind from/ knotsBaromVisibWave heightAir tempDewpointWater temp
2014-Sep-19 05:34N 35°53' E 140°41'0 0.0
2014-Sep-19 04:33N 35°53' E 140°41'0 0.0
2014-Sep-19 03:33N 35°53' E 140°41'0 0.0
2014-Sep-19 02:33N 35°53' E 140°41'0 0.1
2014-Sep-19 01:34N 35°53' E 140°41'0 0.2
2014-Sep-19 00:26N 35°53' E 140°41'0 0.0
2014-Sep-18 23:33N 35°53' E 140°41'1 1.0
2014-Sep-18 22:33N 35°54' E 140°41'5 5.1
2014-Sep-18 21:33N 35°58' E 140°45'0 0.0
2014-Sep-18 20:33N 35°58' E 140°45'0 0.0
2014-Sep-18 19:33N 35°58' E 140°45'0 0.0
2014-Sep-18 18:34N 35°58' E 140°45'0 0.0
2014-Sep-18 17:32N 35°58' E 140°45'0 0.0
2014-Sep-18 16:33N 35°58' E 140°45'2 2.4
2014-Sep-18 15:32N 35°56' E 140°46'1111.2
2014-Sep-18 14:34N 35°46' E 140°53'10 9.8
2014-Sep-18 13:33N 35°37' E 140°52'1010.0
2014-Sep-18 12:33N 35°28' E 140°45'1111.0
2014-Sep-18 11:32N 35°20' E 140°36'1111.0
2014-Sep-18 10:30N 35°11' E 140°27'1212.1
2014-Sep-18 09:31N 35°03' E 140°16'1212.0
2014-Sep-18 08:32N 34°57' E 140°04'1211.4
2014-Sep-18 07:28N 34°52' E 139°50'9 9.8
2014-Sep-18 06:33N 34°59' E 139°43'1111.5
2014-Sep-18 05:33N 35°10' E 139°46'1111.4
2014-Sep-18 04:33N 35°21' E 139°42'1111.4
2014-Sep-18 03:34N 35°30' E 139°52'1211.9
2014-Sep-18 02:33N 35°36' E 140°05'1 0.5
2014-Sep-18 01:32N 35°36' E 140°05'0 0.0
2014-Sep-18 00:33N 35°36' E 140°05'0 0.0
2014-Sep-17 23:33N 35°36' E 140°05'4 4.1
2014-Sep-17 22:33N 35°33' E 140°02'0 0.0
2014-Sep-17 21:34N 35°33' E 140°02'0 0.0
2014-Sep-17 20:33N 35°33' E 140°02'0 0.0
2014-Sep-17 19:33N 35°33' E 140°02'0 0.0
2014-Sep-17 18:33N 35°33' E 140°02'0 0.0
2014-Sep-17 17:33N 35°33' E 140°02'0 0.0
2014-Sep-17 16:33N 35°33' E 140°02'0 0.0
2014-Sep-17 15:33N 35°33' E 140°02'0 0.0
2014-Sep-17 14:34N 35°33' E 140°02'0 0.0
2014-Sep-17 13:34N 35°33' E 140°02'0 0.0
2014-Sep-17 12:33N 35°33' E 140°02'0 0.0
2014-Sep-17 11:33N 35°33' E 140°02'0 0.0
2014-Sep-17 10:33N 35°33' E 140°02'0 0.0
2014-Sep-17 09:33N 35°33' E 140°02'0 0.0
2014-Sep-17 08:34N 35°33' E 140°02'0 0.0
2014-Sep-17 07:33N 35°33' E 140°02'4 3.7
2014-Sep-17 06:34N 35°32' E 140°06'0 0.1
2014-Sep-17 05:33N 35°32' E 140°06'0 0.0
2014-Sep-17 04:33N 35°32' E 140°06'1 0.9
2014-Sep-17 03:33N 35°33' E 140°05'1 0.8
2014-Sep-17 02:33N 35°34' E 140°05'2 2.4
2014-Sep-17 01:34N 35°36' E 140°05'0 0.0
2014-Sep-17 00:33N 35°36' E 140°05'0 0.0
2014-Sep-16 23:33N 35°36' E 140°05'5 5.3
2014-Sep-16 22:33N 35°34' E 139°59'7 6.9
2014-Sep-16 21:34N 35°41' E 139°59'0 0.0
2014-Sep-16 20:33N 35°41' E 139°59'0 0.0
2014-Sep-16 19:33N 35°41' E 139°59'0 0.0
2014-Sep-16 18:33N 35°41' E 139°59'0 0.0
2014-Sep-16 17:34N 35°41' E 139°59'0 0.0
2014-Sep-16 16:34N 35°41' E 139°59'0 0.0
2014-Sep-16 15:34N 35°41' E 139°59'0 0.0
2014-Sep-16 14:33N 35°41' E 139°59'0 0.0
2014-Sep-16 13:34N 35°41' E 139°59'0 0.0
2014-Sep-16 12:33N 35°41' E 139°59'0 0.0
2014-Sep-16 11:34N 35°41' E 139°59'0 0.0
2014-Sep-16 10:33N 35°41' E 139°59'0 0.0
2014-Sep-16 09:34N 35°41' E 139°59'0 0.0
2014-Sep-16 08:33N 35°41' E 139°59'0 0.0
2014-Sep-16 07:34N 35°41' E 139°59'0 0.0
2014-Sep-16 06:34N 35°41' E 139°59'0 0.0
2014-Sep-16 05:34N 35°41' E 139°59'0 0.0
2014-Sep-16 04:33N 35°41' E 139°59'0 0.0
2014-Sep-16 03:33N 35°41' E 139°59'0 0.0
2014-Sep-16 02:33N 35°41' E 139°59'0 0.0
2014-Sep-16 01:33N 35°41' E 139°59'0 0.0
2014-Sep-16 00:34N 35°41' E 139°59'0 0.0
2014-Sep-15 23:34N 35°41' E 139°59'0 0.0
2014-Sep-15 22:34N 35°41' E 139°59'0 0.0
2014-Sep-15 21:34N 35°41' E 139°59'0 0.0
2014-Sep-15 20:33N 35°41' E 139°59'0 0.0
2014-Sep-15 19:33N 35°41' E 139°59'0 0.0
2014-Sep-15 18:33N 35°41' E 139°59'0 0.0
2014-Sep-15 17:33N 35°41' E 139°59'0 0.0
2014-Sep-15 16:34N 35°41' E 139°59'0 0.0
2014-Sep-15 15:33N 35°41' E 139°59'0 0.0
2014-Sep-15 14:33N 35°41' E 139°59'0 0.0
2014-Sep-15 13:33N 35°41' E 139°59'0 0.0
2014-Sep-15 12:33N 35°41' E 139°59'0 0.0
2014-Sep-15 11:34N 35°41' E 139°59'0 0.0
2014-Sep-15 10:34N 35°41' E 139°59'0 0.0
2014-Sep-15 09:33N 35°41' E 139°59'0 0.0
2014-Sep-15 08:34N 35°41' E 139°59'0 0.0
2014-Sep-15 07:34N 35°41' E 139°59'0 0.0
2014-Sep-15 06:34N 35°41' E 139°59'0 0.0
2014-Sep-15 05:33N 35°41' E 139°59'0 0.0
2014-Sep-15 04:33N 35°41' E 139°59'0 0.0
2014-Sep-15 03:34N 35°41' E 139°59'0 0.0
2014-Sep-15 02:34N 35°41' E 139°59'0 0.0
2014-Sep-15 01:33N 35°41' E 139°59'0 0.0
2014-Sep-15 00:33N 35°41' E 139°59'0 0.0
2014-Sep-14 23:33N 35°41' E 139°59'0 0.0
2014-Sep-14 22:34N 35°41' E 139°59'0 0.0
2014-Sep-14 21:33N 35°41' E 139°59'0 0.0
2014-Sep-14 20:33N 35°41' E 139°59'0 0.0
2014-Sep-14 19:34N 35°41' E 139°59'0 0.0
2014-Sep-14 18:34N 35°41' E 139°59'0 0.0
2014-Sep-14 17:33N 35°41' E 139°59'0 0.0
2014-Sep-14 16:33N 35°41' E 139°59'0 0.0
2014-Sep-14 15:33N 35°41' E 139°59'0 0.0
2014-Sep-14 14:34N 35°41' E 139°59'0 0.0
2014-Sep-14 13:33N 35°41' E 139°59'0 0.0
2014-Sep-14 12:34N 35°41' E 139°59'0 0.0
2014-Sep-14 11:33N 35°41' E 139°59'0 0.0
2014-Sep-14 10:34N 35°41' E 139°59'0 0.0
2014-Sep-14 09:34N 35°41' E 139°59'0 0.0
2014-Sep-14 08:33N 35°41' E 139°59'0 0.0
2014-Sep-14 07:33N 35°41' E 139°59'0 0.0
2014-Sep-14 06:34N 35°41' E 139°59'0 0.0
2014-Sep-14 05:34N 35°41' E 139°59'0 0.0
2014-Sep-14 04:34N 35°41' E 139°59'0 0.0
2014-Sep-14 03:33N 35°41' E 139°59'0 0.0
2014-Sep-14 02:34N 35°41' E 139°59'0 0.0
2014-Sep-14 01:34N 35°41' E 139°59'4 0.9
2014-Sep-13 21:33N 35°37' E 139°57'6 5.7
2014-Sep-13 20:34N 35°32' E 139°55'1010.2
2014-Sep-13 19:33N 35°24' E 139°47'1010.3
2014-Sep-13 18:34N 35°14' E 139°47'1110.8
2014-Sep-13 17:32N 35°04' E 139°41'9 0.3
2014-Sep-12 06:33N 35°12' E 139°46'1010.1
2014-Sep-12 05:33N 35°22' E 139°42'3 3.5
2014-Sep-12 04:33N 35°24' E 139°45'1010.2
2014-Sep-12 03:33N 35°30' E 139°56'4 3.7
2014-Sep-12 02:33N 35°28' E 140°00'0 0.0
2014-Sep-12 01:33N 35°28' E 140°00'0 0.0
2014-Sep-12 00:33N 35°28' E 140°00'3 2.5
2014-Sep-11 23:33N 35°30' E 139°58'0 0.3
2014-Sep-11 22:33N 35°30' E 139°57'0 0.0
2014-Sep-11 21:33N 35°30' E 139°57'0 0.0
2014-Sep-11 20:33N 35°30' E 139°57'0 0.0
2014-Sep-11 19:33N 35°30' E 139°57'0 0.0
2014-Sep-11 18:33N 35°30' E 139°57'0 0.0
2014-Sep-11 17:33N 35°30' E 139°57'0 0.0
2014-Sep-11 16:33N 35°30' E 139°57'1 0.9
2014-Sep-11 15:33N 35°30' E 139°56'1111.1
2014-Sep-11 14:33N 35°23' E 139°46'1010.5
2014-Sep-11 13:33N 35°12' E 139°47'1211.9
2014-Sep-11 12:31N 35°00' E 139°43'14 9.5
2014-Sep-11 11:05N 34°53' E 139°57'810.0
2014-Sep-11 10:16N 34°57' E 140°06'27 9.8
2014-Sep-11 07:32N 35°15' E 140°31'1212.0
2014-Sep-11 06:32N 35°24' E 140°40'34 9.8
2014-Sep-11 03:06N 35°58' E 140°43'5 8.9
2014-Sep-11 02:33N 35°53' E 140°41'0 0.0
2014-Sep-11 01:33N 35°53' E 140°41'0 0.0
2014-Sep-11 00:33N 35°53' E 140°41'0 0.0
2014-Sep-10 23:33N 35°53' E 140°41'2 1.9
2014-Sep-10 22:33N 35°55' E 140°41'5 4.6
2014-Sep-10 21:33N 35°58' E 140°45'0 0.0
2014-Sep-10 20:29N 35°58' E 140°45'0 0.0
2014-Sep-10 19:33N 35°58' E 140°45'0 0.0
2014-Sep-10 17:06N 35°58' E 140°45'0 0.0
2014-Sep-10 16:33N 35°58' E 140°45'6 6.2
2014-Sep-10 15:33N 35°53' E 140°49'1111.4
2014-Sep-10 14:33N 35°43' E 140°55'1211.6
2014-Sep-10 13:33N 35°33' E 140°47'1211.5
2014-Sep-10 12:33N 35°23' E 140°40'1211.6
2014-Sep-10 11:33N 35°14' E 140°31'1413.6
2014-Sep-10 10:32N 35°04' E 140°19'1313.3
2014-Sep-10 09:33N 34°57' E 140°05'1411.9
2014-Sep-10 08:21N 34°52' E 139°49'8 9.7
2014-Sep-10 07:34N 34°59' E 139°44'9 9.3
2014-Sep-10 06:34N 35°08' E 139°45'1010.0
2014-Sep-10 05:34N 35°18' E 139°44'9 9.2
2014-Sep-10 04:34N 35°27' E 139°47'1110.6
2014-Sep-10 03:33N 35°28' E 139°60'1 0.5
2014-Sep-10 02:33N 35°28' E 140°00'0 0.0
2014-Sep-10 01:34N 35°28' E 140°00'0 0.0
2014-Sep-10 00:33N 35°28' E 140°00'2 1.9
2014-Sep-09 23:33N 35°30' E 139°59'1010.3
2014-Sep-09 22:33N 35°40' E 139°59'1 0.7
2014-Sep-09 21:33N 35°41' E 139°59'0 0.0
2014-Sep-09 20:33N 35°41' E 139°59'0 0.0
2014-Sep-09 19:34N 35°41' E 139°59'0 0.0
2014-Sep-09 18:33N 35°41' E 139°59'0 0.0
2014-Sep-09 17:34N 35°41' E 139°59'0 0.0
2014-Sep-09 16:33N 35°41' E 139°59'0 0.0
2014-Sep-09 15:33N 35°41' E 139°59'0 0.0
2014-Sep-09 14:34N 35°41' E 139°59'0 0.0
2014-Sep-09 13:34N 35°41' E 139°59'0 0.0
2014-Sep-09 12:34N 35°41' E 139°59'0 0.0
2014-Sep-09 11:33N 35°41' E 139°59'0 0.0
2014-Sep-09 10:34N 35°41' E 139°59'0 0.0
2014-Sep-09 09:33N 35°41' E 139°59'0 0.0
2014-Sep-09 08:34N 35°41' E 139°59'0 0.4
2014-Sep-09 07:33N 35°40' E 139°59'10 9.8
2014-Sep-09 06:34N 35°32' E 140°06'0 0.0
2014-Sep-09 05:34N 35°32' E 140°06'  

Dump ship's entire track history